Time;durP1;ratioP1;P1;durP2;ratioP2;P2;SDS_P1;SDS_P2;PMS_P1;PMS_P2;Temp;Humidity;BMP_temperature;BMP_pressure;BME280_temperature;BME280_humidity;BME280_pressure;Samples;Min_cycle;Max_cycle;Signal;HPM_P1;HPM_P2
2023/09/06 00:01:30;;;;;;;26.47;7.83;;;29.90;55.30;;;;;;5018869;28;20688;-72
2023/09/06 00:03:57;;;;;;;23.73;7.50;;;29.90;55.30;;;;;;5019177;28;20219;-73
2023/09/06 00:06:24;;;;;;;41.63;9.00;;;29.90;55.30;;;;;;5020167;28;20208;-72
2023/09/06 00:08:52;;;;;;;23.80;7.27;;;29.90;55.40;;;;;;5007475;28;20295;-72
2023/09/06 00:11:19;;;;;;;39.80;9.13;;;29.90;55.40;;;;;;5009645;28;20566;-72
2023/09/06 00:13:46;;;;;;;19.60;7.60;;;29.90;55.40;;;;;;5027566;28;20293;-74
2023/09/06 00:16:15;;;;;;;30.47;8.70;;;29.90;55.40;;;;;;5013592;28;20541;-72
2023/09/06 00:18:42;;;;;;;21.47;7.07;;;29.80;56.00;;;;;;5023710;28;20743;-72
2023/09/06 00:21:09;;;;;;;21.73;7.60;;;29.80;55.50;;;;;;5022664;28;20225;-72
2023/09/06 00:23:36;;;;;;;20.17;7.30;;;29.80;55.50;;;;;;5007542;28;20986;-73
2023/09/06 00:26:04;;;;;;;26.03;7.67;;;29.80;55.50;;;;;;5016490;28;20303;-73
2023/09/06 00:28:30;;;;;;;35.00;7.87;;;29.80;55.50;;;;;;5023895;28;20201;-71
2023/09/06 00:30:57;;;;;;;27.83;7.50;;;29.80;55.50;;;;;;5045884;28;20287;-74
2023/09/06 00:33:29;;;;;;;31.97;8.57;;;29.80;55.50;;;;;;5028777;28;20307;-73
2023/09/06 00:35:56;;;;;;;25.60;7.33;;;29.70;55.40;;;;;;5021473;28;20236;-73
2023/09/06 00:38:24;;;;;;;37.70;8.53;;;29.70;55.40;;;;;;5005555;28;20212;-72
2023/09/06 00:40:53;;;;;;;47.23;9.60;;;29.70;55.40;;;;;;5007879;28;20212;-71
2023/09/06 00:43:19;;;;;;;34.20;8.43;;;29.70;55.40;;;;;;5019675;28;20209;-73
2023/09/06 00:45:50;;;;;;;35.73;8.93;;;29.70;55.50;;;;;;5025810;28;20207;-72
2023/09/06 00:48:21;;;;;;;25.93;7.57;;;29.70;55.50;;;;;;5025575;28;20288;-72
2023/09/06 00:50:52;;;;;;;29.77;8.20;;;29.60;55.40;;;;;;5026083;28;20234;-72
2023/09/06 00:53:21;;;;;;;21.73;7.60;;;29.60;55.50;;;;;;5026041;28;20199;-72
2023/09/06 00:55:48;;;;;;;44.63;9.40;;;29.60;55.50;;;;;;5025518;28;20703;-71
2023/09/06 00:58:17;;;;;;;30.23;8.40;;;29.60;55.50;;;;;;5026652;28;20208;-72
2023/09/06 01:00:44;;;;;;;25.63;7.63;;;29.60;55.50;;;;;;5026527;28;20312;-72
2023/09/06 01:03:11;;;;;;;23.83;7.63;;;29.60;55.50;;;;;;5025706;28;20284;-72
2023/09/06 01:05:45;;;;;;;32.87;8.10;;;29.60;55.60;;;;;;5026503;28;20296;-72
2023/09/06 01:08:20;;;;;;;24.23;7.40;;;29.50;55.60;;;;;;5026136;28;20212;-71
2023/09/06 01:10:50;;;;;;;39.97;8.90;;;29.60;55.60;;;;;;5025489;28;20636;-72
2023/09/06 01:13:17;;;;;;;24.73;8.43;;;29.50;55.60;;;;;;5025829;28;20246;-71
2023/09/06 01:15:45;;;;;;;23.47;7.67;;;29.50;55.60;;;;;;5025955;28;20734;-71
2023/09/06 01:18:13;;;;;;;27.13;8.13;;;29.50;55.60;;;;;;5025858;28;20719;-72
2023/09/06 01:20:44;;;;;;;27.87;8.43;;;29.50;55.60;;;;;;5006992;28;20201;-71
2023/09/06 01:23:27;;;;;;;45.50;9.83;;;29.50;55.60;;;;;;5008917;28;20233;-71
2023/09/06 01:25:55;;;;;;;25.13;7.97;;;29.50;55.70;;;;;;5006570;28;20229;-71
2023/09/06 01:28:27;;;;;;;23.90;7.80;;;29.50;55.70;;;;;;5020153;28;20201;-72
2023/09/06 01:30:54;;;;;;;25.97;8.70;;;29.50;55.70;;;;;;5023646;28;20207;-72
2023/09/06 01:33:22;;;;;;;25.17;7.93;;;29.40;55.60;;;;;;5025132;28;20208;-72
2023/09/06 01:35:49;;;;;;;25.40;8.03;;;29.40;55.70;;;;;;5009679;28;20232;-74
2023/09/06 01:38:16;;;;;;;22.00;7.47;;;29.40;55.70;;;;;;5014367;28;20259;-75
2023/09/06 01:40:45;;;;;;;29.20;8.73;;;29.40;55.70;;;;;;5005766;28;20623;-74
2023/09/06 01:43:12;;;;;;;27.60;8.07;;;29.40;55.70;;;;;;5006790;28;20229;-75
2023/09/06 01:45:43;;;;;;;26.80;8.07;;;29.40;55.70;;;;;;5022261;28;20633;-72
2023/09/06 01:48:11;;;;;;;22.57;8.00;;;29.30;55.60;;;;;;5024174;28;20201;-73
2023/09/06 01:50:38;;;;;;;30.03;9.87;;;29.30;55.60;;;;;;5015480;28;20196;-73
2023/09/06 01:53:05;;;;;;;23.47;8.63;;;29.30;55.60;;;;;;5007635;28;20288;-72
2023/09/06 01:55:32;;;;;;;27.97;8.23;;;29.30;55.70;;;;;;5019772;28;20267;-72
2023/09/06 01:58:00;;;;;;;25.03;8.53;;;29.30;55.70;;;;;;5017596;28;20201;-75
2023/09/06 02:00:28;;;;;;;23.33;8.53;;;29.30;56.30;;;;;;5005302;28;20609;-74
2023/09/06 02:02:54;;;;;;;26.30;8.77;;;29.30;55.70;;;;;;5017012;28;20201;-75
2023/09/06 02:05:21;;;;;;;27.50;8.43;;;29.30;55.70;;;;;;5009362;28;20204;-72
2023/09/06 02:07:48;;;;;;;27.87;8.83;;;29.30;55.80;;;;;;5005385;28;20263;-72
2023/09/06 02:10:16;;;;;;;33.77;8.97;;;29.20;55.70;;;;;;5005302;28;20262;-72
2023/09/06 02:12:43;;;;;;;29.83;8.67;;;29.30;55.80;;;;;;5009541;28;20196;-72
2023/09/06 02:15:13;;;;;;;35.23;9.23;;;29.20;55.80;;;;;;5006358;28;20232;-72
2023/09/06 02:17:42;;;;;;;33.37;9.60;;;29.20;55.80;;;;;;5016056;28;20206;-72
2023/09/06 02:20:17;;;;;;;21.13;7.53;;;29.20;55.80;;;;;;5011144;28;20212;-72
2023/09/06 02:22:44;;;;;;;32.50;8.97;;;29.20;55.80;;;;;;5008257;28;20221;-72
2023/09/06 02:25:13;;;;;;;37.37;9.07;;;29.20;55.90;;;;;;5025372;28;20232;-72
2023/09/06 02:27:41;;;;;;;22.03;8.17;;;29.20;55.80;;;;;;5005295;28;20297;-72
2023/09/06 02:30:09;;;;;;;22.20;8.00;;;29.20;55.90;;;;;;5005518;28;20205;-71
2023/09/06 02:32:37;;;;;;;39.37;9.73;;;29.20;55.90;;;;;;5005008;28;20232;-72
2023/09/06 02:35:07;;;;;;;30.33;8.40;;;29.20;55.90;;;;;;5007013;28;20708;-72
2023/09/06 02:37:34;;;;;;;48.60;10.27;;;29.10;55.90;;;;;;5016070;28;20254;-72
2023/09/06 02:40:01;;;;;;;32.67;9.43;;;29.10;55.90;;;;;;5023739;28;20616;-74
2023/09/06 02:42:28;;;;;;;22.73;8.33;;;29.20;56.60;;;;;;5019854;28;20208;-72
2023/09/06 02:44:55;;;;;;;27.33;8.43;;;29.10;55.90;;;;;;5011055;28;20205;-72
2023/09/06 02:47:28;;;;;;;21.07;7.93;;;29.10;55.90;;;;;;5014855;28;20281;-71
2023/09/06 02:49:57;;;;;;;28.83;8.40;;;29.10;55.90;;;;;;5008271;28;20192;-72
2023/09/06 02:52:29;;;;;;;38.17;9.00;;;29.10;55.90;;;;;;5015142;28;20201;-72
2023/09/06 02:54:57;;;;;;;34.70;8.83;;;29.10;56.00;;;;;;5005703;28;20281;-71
2023/09/06 02:57:25;;;;;;;23.80;7.67;;;29.10;56.00;;;;;;5017651;28;20202;-72
2023/09/06 02:59:53;;;;;;;24.80;8.67;;;29.10;55.90;;;;;;5009792;28;20206;-73
2023/09/06 03:02:22;;;;;;;28.50;8.27;;;29.00;55.90;;;;;;5022034;28;20737;-72
2023/09/06 03:04:54;;;;;;;25.40;8.20;;;29.10;56.00;;;;;;5014268;28;20254;-72
2023/09/06 03:07:23;;;;;;;27.87;8.17;;;29.00;56.00;;;;;;5022287;28;20205;-72
2023/09/06 03:09:50;;;;;;;40.13;9.33;;;29.00;56.60;;;;;;5012866;28;20297;-72
2023/09/06 03:12:17;;;;;;;26.03;8.30;;;29.00;56.00;;;;;;5007948;28;20233;-73
2023/09/06 03:14:47;;;;;;;27.63;7.60;;;29.00;56.00;;;;;;5022481;28;20300;-72
2023/09/06 03:17:18;;;;;;;22.17;7.47;;;29.00;56.00;;;;;;5009323;28;20223;-72
2023/09/06 03:19:48;;;;;;;18.63;7.20;;;29.00;56.00;;;;;;5011745;28;20197;-72
2023/09/06 03:22:15;;;;;;;27.83;7.53;;;29.00;56.00;;;;;;5008727;28;20205;-73
2023/09/06 03:24:44;;;;;;;26.07;7.33;;;29.00;56.00;;;;;;5007621;28;20197;-73
2023/09/06 03:27:16;;;;;;;29.30;8.13;;;29.00;56.00;;;;;;5008322;28;21010;-73
2023/09/06 03:29:45;;;;;;;26.90;8.27;;;28.90;56.00;;;;;;5007909;28;20244;-73
2023/09/06 03:32:12;;;;;;;33.00;8.43;;;29.00;56.70;;;;;;5019735;28;20197;-73
2023/09/06 03:34:40;;;;;;;28.00;7.97;;;29.00;56.10;;;;;;5019899;28;20687;-72
2023/09/06 03:37:08;;;;;;;24.83;7.37;;;28.90;56.00;;;;;;5008310;28;20221;-73
2023/09/06 03:39:37;;;;;;;21.80;7.30;;;28.90;56.00;;;;;;5007734;28;20237;-72
2023/09/06 03:42:08;;;;;;;27.73;7.87;;;28.90;56.10;;;;;;5013231;28;20622;-72
2023/09/06 03:44:35;;;;;;;19.23;7.23;;;28.90;56.10;;;;;;5012175;28;20210;-72
2023/09/06 03:47:05;;;;;;;35.50;8.83;;;28.90;56.10;;;;;;5010791;28;20552;-73
2023/09/06 03:49:35;;;;;;;32.33;8.57;;;28.90;56.10;;;;;;5015173;28;20209;-72
2023/09/06 03:52:03;;;;;;;28.87;8.00;;;28.80;56.00;;;;;;5026352;28;20202;-72
2023/09/06 03:54:30;;;;;;;37.17;8.67;;;28.80;56.00;;;;;;5024797;28;20223;-72
2023/09/06 03:56:57;;;;;;;40.83;8.83;;;28.80;56.00;;;;;;5024339;28;20228;-72
2023/09/06 03:59:26;;;;;;;22.10;7.60;;;28.80;56.00;;;;;;5020390;28;20212;-73
2023/09/06 04:01:55;;;;;;;27.30;7.63;;;28.80;56.00;;;;;;5021165;28;20224;-72
2023/09/06 04:04:23;;;;;;;29.27;8.23;;;28.80;56.60;;;;;;5007251;28;20402;-73
2023/09/06 04:06:50;;;;;;;21.77;7.10;;;28.80;56.00;;;;;;5026717;28;20218;-72
2023/09/06 04:09:18;;;;;;;27.37;7.73;;;28.80;56.00;;;;;;5025547;28;20209;-72
2023/09/06 04:11:46;;;;;;;22.57;7.40;;;28.80;56.00;;;;;;5031932;28;20200;-73
2023/09/06 04:14:14;;;;;;;50.13;9.97;;;28.70;56.00;;;;;;5017474;28;20296;-73
2023/09/06 04:16:42;;;;;;;23.00;7.43;;;28.80;56.10;;;;;;5026379;28;20748;-73
2023/09/06 04:19:09;;;;;;;25.13;7.70;;;28.70;56.00;;;;;;5022557;28;20311;-73
2023/09/06 04:21:37;;;;;;;24.77;8.17;;;28.80;56.10;;;;;;5026111;28;20199;-73
2023/09/06 04:24:07;;;;;;;41.20;9.00;;;28.80;56.10;;;;;;5021634;28;20316;-73
2023/09/06 04:26:34;;;;;;;26.60;7.37;;;28.80;56.10;;;;;;5020469;28;20212;-74
2023/09/06 04:29:02;;;;;;;27.67;7.93;;;28.70;56.10;;;;;;5012650;28;20259;-73
2023/09/06 04:31:30;;;;;;;31.27;8.53;;;28.70;56.10;;;;;;5006715;28;20216;-72
2023/09/06 04:33:58;;;;;;;28.20;8.07;;;28.70;56.10;;;;;;5016059;28;20200;-72
2023/09/06 04:36:25;;;;;;;30.03;8.03;;;28.70;56.10;;;;;;5025166;28;20787;-72
2023/09/06 04:38:52;;;;;;;26.50;7.97;;;28.70;56.10;;;;;;5027965;28;20568;-73
2023/09/06 04:41:20;;;;;;;28.27;8.13;;;28.70;56.10;;;;;;5020324;28;20576;-74
2023/09/06 04:43:47;;;;;;;26.17;8.00;;;28.70;56.10;;;;;;5012757;28;20212;-73
2023/09/06 04:46:14;;;;;;;34.13;9.60;;;28.70;56.10;;;;;;5024343;28;20512;-74
2023/09/06 04:48:40;;;;;;;42.93;9.97;;;28.70;56.40;;;;;;5028453;28;20713;-72
2023/09/06 04:51:09;;;;;;;35.30;9.07;;;28.60;56.30;;;;;;5005575;28;20208;-72
2023/09/06 04:53:36;;;;;;;29.10;7.87;;;28.60;56.20;;;;;;5017449;27;20276;-72
2023/09/06 04:56:04;;;;;;;30.53;8.17;;;28.70;56.30;;;;;;5021152;28;20237;-73
2023/09/06 04:58:32;;;;;;;32.57;8.97;;;28.60;56.80;;;;;;5006883;28;20639;-72
2023/09/06 05:01:05;;;;;;;37.17;9.50;;;28.70;56.20;;;;;;5016993;28;20661;-72
2023/09/06 05:03:35;;;;;;;39.93;9.10;;;28.70;56.20;;;;;;5020024;28;20842;-72
2023/09/06 05:06:02;;;;;;;27.83;8.73;;;28.70;56.20;;;;;;5021579;28;20292;-72
2023/09/06 05:08:32;;;;;;;48.07;10.23;;;28.70;56.10;;;;;;5017561;28;20727;-72
2023/09/06 05:10:59;;;;;;;32.57;9.43;;;28.60;56.10;;;;;;5022597;28;20205;-72
2023/09/06 05:13:26;;;;;;;30.23;8.80;;;28.60;56.10;;;;;;5023035;28;20232;-71
2023/09/06 05:16:00;;;;;;;26.07;8.40;;;28.60;56.10;;;;;;5024322;28;20220;-72
2023/09/06 05:18:27;;;;;;;29.17;8.23;;;28.60;56.10;;;;;;5084408;27;20205;-73
2023/09/06 05:20:55;;;;;;;31.77;8.87;;;28.60;56.10;;;;;;5043324;27;21142;-73
2023/09/06 05:23:22;;;;;;;33.10;8.87;;;28.60;56.20;;;;;;5007939;28;20656;-73
2023/09/06 05:25:51;;;;;;;30.63;8.50;;;28.60;56.20;;;;;;5006452;28;20216;-73
2023/09/06 05:28:18;;;;;;;61.37;11.17;;;28.60;56.20;;;;;;5013701;28;20467;-73
2023/09/06 05:30:46;;;;;;;29.57;8.90;;;28.50;56.10;;;;;;5019382;28;20270;-73
2023/09/06 05:33:15;;;;;;;26.37;8.03;;;28.50;56.10;;;;;;5006980;28;20229;-73
2023/09/06 05:35:42;;;;;;;49.73;10.00;;;28.50;56.80;;;;;;5006105;28;20221;-73
2023/09/06 05:38:10;;;;;;;45.47;9.97;;;28.50;56.20;;;;;;5014189;28;20203;-72
2023/09/06 05:40:37;;;;;;;33.63;8.50;;;28.50;56.20;;;;;;5005815;28;20212;-73
2023/09/06 05:43:05;;;;;;;65.53;11.77;;;28.50;56.20;;;;;;5015918;28;20198;-72
2023/09/06 05:45:32;;;;;;;28.17;8.47;;;28.50;56.20;;;;;;5022931;28;20210;-74
2023/09/06 05:47:59;;;;;;;41.63;9.57;;;28.50;56.30;;;;;;5010152;28;20598;-74
2023/09/06 05:50:29;;;;;;;38.87;8.67;;;28.50;56.30;;;;;;5015497;28;20279;-74
2023/09/06 05:52:56;;;;;;;27.90;7.87;;;28.50;56.30;;;;;;5026190;28;20209;-74
2023/09/06 05:55:23;;;;;;;50.00;9.83;;;28.50;56.30;;;;;;5015046;28;20690;-74
2023/09/06 05:57:50;;;;;;;30.70;8.60;;;28.40;56.20;;;;;;5012865;28;20217;-74
2023/09/06 06:00:21;;;;;;;28.53;8.03;;;28.40;56.20;;;;;;5005970;28;20297;-74
2023/09/06 06:02:49;;;;;;;27.00;8.17;;;28.40;56.20;;;;;;5018731;28;20205;-74
2023/09/06 06:05:18;;;;;;;27.50;8.03;;;28.40;56.30;;;;;;5025688;28;20301;-74
2023/09/06 06:07:45;;;;;;;22.93;7.27;;;28.40;56.30;;;;;;5026094;28;20232;-74
2023/09/06 06:10:13;;;;;;;39.83;9.27;;;28.40;56.40;;;;;;5027796;28;20246;-74
2023/09/06 06:12:41;;;;;;;23.93;7.83;;;28.40;56.40;;;;;;5023599;28;20197;-74
2023/09/06 06:15:11;;;;;;;37.03;8.90;;;28.40;56.40;;;;;;5023847;28;20240;-74
2023/09/06 06:17:40;;;;;;;31.97;7.90;;;28.40;56.40;;;;;;5017609;28;20286;-74
2023/09/06 06:20:09;;;;;;;27.17;8.00;;;28.30;56.30;;;;;;5005302;28;20236;-74
2023/09/06 06:22:38;;;;;;;24.77;7.97;;;28.40;56.40;;;;;;5010304;28;20387;-72
2023/09/06 06:27:18;;;;;;;25.67;8.57;;;28.40;55.90;;;;;;5097448;27;20569;-72
2023/09/06 06:29:45;;;;;;;17.57;7.67;;;28.40;56.50;;;;;;5085737;28;20290;-71
2023/09/06 06:32:12;;;;;;;27.40;8.40;;;28.40;56.50;;;;;;5080686;28;20215;-74
2023/09/06 06:34:39;;;;;;;30.10;8.97;;;28.40;56.60;;;;;;5082347;28;20285;-71
2023/09/06 06:37:06;;;;;;;28.33;8.63;;;28.40;57.20;;;;;;5073389;28;20294;-74
2023/09/06 06:39:33;;;;;;;26.20;8.30;;;28.40;56.60;;;;;;5078320;28;20286;-72
2023/09/06 06:44:31;;;;;;;31.00;8.73;;;28.40;56.20;;;;;;5114981;27;20616;-73
2023/09/06 06:46:58;;;;;;;25.80;7.50;;;28.40;56.70;;;;;;5101978;28;20288;-73
2023/09/06 06:49:28;;;;;;;39.27;9.37;;;28.40;56.70;;;;;;5102387;28;20686;-72
2023/09/06 06:51:55;;;;;;;33.60;8.10;;;28.40;56.70;;;;;;5101052;28;20195;-72
2023/09/06 06:54:22;;;;;;;29.37;7.90;;;28.40;56.70;;;;;;5086365;28;20285;-72
2023/09/06 06:56:49;;;;;;;32.67;8.27;;;28.40;56.70;;;;;;5096633;28;20287;-71
2023/09/06 06:59:17;;;;;;;31.80;8.10;;;28.50;56.80;;;;;;5105521;28;20297;-73
2023/09/06 07:01:47;;;;;;;24.67;7.37;;;28.50;56.80;;;;;;5104979;28;20251;-72
2023/09/06 07:04:14;;;;;;;26.37;7.67;;;28.50;56.80;;;;;;5104122;28;20232;-72
2023/09/06 07:06:41;;;;;;;29.57;7.10;;;28.50;56.80;;;;;;5104955;28;20625;-72
2023/09/06 07:09:10;;;;;;;24.07;7.20;;;28.50;56.80;;;;;;5104152;28;20314;-74
2023/09/06 07:11:38;;;;;;;24.80;6.90;;;28.50;56.80;;;;;;5105630;28;20213;-73
2023/09/06 07:14:05;;;;;;;22.50;6.47;;;28.50;56.80;;;;;;5105143;28;20297;-72
2023/09/06 07:16:33;;;;;;;29.37;7.50;;;28.50;56.80;;;;;;5105443;28;20259;-72
2023/09/06 07:19:02;;;;;;;38.73;8.30;;;28.50;56.80;;;;;;5099837;28;20222;-73
2023/09/06 07:21:30;;;;;;;19.97;6.43;;;28.50;56.80;;;;;;5104977;28;20204;-72
2023/09/06 07:23:57;;;;;;;26.50;7.40;;;28.60;56.90;;;;;;5104643;28;20772;-72
2023/09/06 07:26:24;;;;;;;24.33;6.57;;;28.60;56.90;;;;;;5105842;28;20277;-73
2023/09/06 07:28:51;;;;;;;21.07;6.53;;;28.60;56.90;;;;;;5099866;28;20606;-71
2023/09/06 07:31:18;;;;;;;44.90;9.37;;;28.60;56.90;;;;;;5102849;28;20244;-73
2023/09/06 07:33:45;;;;;;;29.17;7.40;;;28.60;56.90;;;;;;5074054;28;20190;-72
2023/09/06 07:36:14;;;;;;;26.90;7.10;;;28.70;57.50;;;;;;5104407;28;20297;-72
2023/09/06 07:38:41;;;;;;;20.27;6.10;;;28.70;57.00;;;;;;5105628;28;20190;-72
2023/09/06 07:41:09;;;;;;;29.17;7.17;;;28.70;57.00;;;;;;5082344;28;20223;-71
2023/09/06 07:43:37;;;;;;;23.80;7.10;;;28.70;57.00;;;;;;5105147;28;20236;-71
2023/09/06 07:46:10;;;;;;;25.00;6.83;;;28.70;57.00;;;;;;5089755;28;20194;-73
2023/09/06 07:48:38;;;;;;;23.73;6.57;;;28.70;57.00;;;;;;5090930;28;20231;-74
2023/09/06 07:51:06;;;;;;;41.57;8.37;;;28.70;57.00;;;;;;5090620;28;20653;-73
2023/09/06 07:53:34;;;;;;;30.97;8.00;;;28.70;57.00;;;;;;5090000;28;20291;-73
2023/09/06 07:56:01;;;;;;;33.03;8.23;;;28.80;57.10;;;;;;5075834;28;20196;-73
2023/09/06 07:58:28;;;;;;;74.50;12.00;;;28.80;57.10;;;;;;5061214;28;20223;-79
2023/09/06 08:00:55;;;;;;;49.37;10.60;;;28.80;57.10;;;;;;5066040;28;20755;-74
2023/09/06 08:03:22;;;;;;;29.23;7.90;;;28.80;57.10;;;;;;5082868;28;20238;-76
2023/09/06 08:05:49;;;;;;;40.10;9.10;;;28.80;57.10;;;;;;5080575;28;20286;-72
2023/09/06 08:08:16;;;;;;;25.37;8.20;;;28.80;57.30;;;;;;5090960;28;20198;-70
2023/09/06 08:10:46;;;;;;;29.00;8.47;;;28.80;57.30;;;;;;5070629;28;20200;-73
2023/09/06 08:13:13;;;;;;;29.20;8.60;;;28.80;57.50;;;;;;5080477;28;20209;-72
2023/09/06 08:15:40;;;;;;;30.10;8.93;;;28.80;57.50;;;;;;5080617;28;20621;-72
2023/09/06 08:18:08;;;;;;;29.53;8.43;;;28.80;57.50;;;;;;5086720;28;20221;-73
2023/09/06 08:20:35;;;;;;;52.73;10.67;;;28.80;57.50;;;;;;5087315;28;20211;-72
2023/09/06 08:23:04;;;;;;;22.80;7.67;;;28.90;57.60;;;;;;5076116;28;20218;-73
2023/09/06 08:25:31;;;;;;;58.40;10.30;;;28.80;57.50;;;;;;5075697;28;20199;-76
2023/09/06 08:27:59;;;;;;;40.33;8.63;;;28.90;57.60;;;;;;5070196;28;20218;-73
2023/09/06 08:30:26;;;;;;;34.30;7.70;;;28.80;57.50;;;;;;5081340;28;20191;-71
2023/09/06 08:32:53;;;;;;;45.43;8.47;;;28.80;57.50;;;;;;5086236;28;20308;-71
2023/09/06 08:35:23;;;;;;;42.67;9.27;;;28.80;57.50;;;;;;5083110;28;20546;-72
2023/09/06 08:37:50;;;;;;;44.20;8.77;;;28.90;57.60;;;;;;5067233;28;20550;-74
2023/09/06 08:40:18;;;;;;;53.30;9.30;;;28.80;57.50;;;;;;5068720;28;20227;-70
2023/09/06 08:42:45;;;;;;;27.43;7.17;;;28.90;57.60;;;;;;5083160;28;20591;-71
2023/09/06 08:45:21;;;;;;;32.10;7.53;;;28.90;57.60;;;;;;5086866;28;20509;-71
2023/09/06 08:47:49;;;;;;;19.30;6.17;;;28.90;57.70;;;;;;5072619;28;20344;-75
2023/09/06 08:50:17;;;;;;;25.00;6.50;;;28.90;57.70;;;;;;5079659;28;20213;-79
2023/09/06 08:52:45;;;;;;;31.00;7.03;;;29.00;57.90;;;;;;5075776;28;20592;-75
2023/09/06 08:55:12;;;;;;;25.90;6.57;;;29.00;58.00;;;;;;5053124;28;20938;-76
2023/09/06 08:57:40;;;;;;;45.30;8.90;;;29.00;57.90;;;;;;5069049;28;20238;-74
2023/09/06 09:00:09;;;;;;;26.90;7.03;;;29.10;58.00;;;;;;5069730;28;20199;-74
2023/09/06 09:02:40;;;;;;;32.37;7.27;;;29.10;58.00;;;;;;5066907;28;20207;-73
2023/09/06 09:05:08;;;;;;;30.07;7.13;;;29.20;57.90;;;;;;5069924;28;20187;-75
2023/09/06 09:07:36;;;;;;;31.90;7.20;;;29.20;57.90;;;;;;5068765;28;20289;-74
2023/09/06 09:10:07;;;;;;;27.13;6.87;;;29.20;57.80;;;;;;5069917;28;20582;-75
2023/09/06 09:12:35;;;;;;;48.57;8.87;;;29.30;58.00;;;;;;5066961;28;20248;-74
2023/09/06 09:15:03;;;;;;;188.53;45.90;;;29.30;57.90;;;;;;5079794;28;20196;-74
2023/09/06 09:17:31;;;;;;;162.20;38.60;;;29.40;58.00;;;;;;5049666;28;20223;-76
2023/09/06 09:20:00;;;;;;;82.97;25.47;;;29.40;58.00;;;;;;5080955;28;20286;-75
2023/09/06 09:22:28;;;;;;;119.27;30.93;;;29.40;58.00;;;;;;5080330;28;20654;-74
2023/09/06 09:24:59;;;;;;;97.50;27.43;;;29.50;58.00;;;;;;5088480;28;20689;-77
2023/09/06 09:27:28;;;;;;;83.27;24.53;;;29.50;58.20;;;;;;5090067;28;20191;-75
2023/09/06 09:29:55;;;;;;;89.67;23.40;;;29.60;58.20;;;;;;5076627;28;20194;-77
2023/09/06 09:32:23;;;;;;;84.35;23.98;;;29.60;58.30;;;;;;5065845;28;20454;-77
2023/09/06 09:35:28;;;;;;;72.57;20.93;;;29.60;58.40;;;;;;5088481;27;20927;-75
2023/09/06 09:37:56;;;;;;;87.40;21.60;;;29.70;58.90;;;;;;5067557;28;20235;-77
2023/09/06 09:40:32;;;;;;;63.40;18.37;;;29.80;58.80;;;;;;5082132;28;20274;-75
2023/09/06 09:43:00;;;;;;;59.20;17.40;;;29.80;58.80;;;;;;5076529;28;20199;-76
2023/09/06 09:45:29;;;;;;;49.03;15.30;;;29.90;58.70;;;;;;5083782;28;20244;-74
2023/09/06 09:47:56;;;;;;;44.57;13.60;;;30.00;58.80;;;;;;5068903;28;20199;-73
2023/09/06 09:50:30;;;;;;;55.10;14.27;;;30.10;58.80;;;;;;5081156;28;20198;-81
2023/09/06 09:52:59;;;;;;;58.10;14.03;;;30.10;58.80;;;;;;5072134;28;20577;-78
2023/09/06 09:55:28;;;;;;;50.60;12.07;;;30.20;58.70;;;;;;5064448;28;20220;-77
2023/09/06 09:57:56;;;;;;;41.80;11.13;;;30.20;58.70;;;;;;5064991;28;20635;-74
2023/09/06 10:01:22;;;;;;;29.60;10.07;;;30.30;58.20;;;;;;5088715;27;20565;-80
2023/09/06 10:03:50;;;;;;;32.20;8.67;;;30.30;58.50;;;;;;5078308;28;20203;-81
2023/09/06 10:06:19;;;;;;;33.97;8.93;;;30.40;58.40;;;;;;5083993;28;20289;-80
2023/09/06 10:09:22;;;;;;;34.17;9.00;;;30.50;58.00;;;;;;5065152;28;20627;-76
2023/09/06 10:11:51;;;;;;;32.87;8.83;;;30.50;58.30;;;;;;5064629;28;20321;-75
2023/09/06 10:14:22;;;;;;;81.87;13.53;;;30.50;58.20;;;;;;5066765;28;20616;-71
2023/09/06 10:16:51;;;;;;;37.03;9.23;;;30.50;58.20;;;;;;5063038;28;20234;-73
2023/09/06 10:19:18;;;;;;;30.37;8.33;;;30.50;58.10;;;;;;5061235;28;20306;-72
2023/09/06 10:21:46;;;;;;;31.93;8.93;;;30.60;58.20;;;;;;5065087;28;20282;-71
2023/09/06 10:24:23;;;;;;;35.73;12.33;;;30.60;58.20;;;;;;5055861;28;20204;-76
2023/09/06 10:26:53;;;;;;;30.77;11.23;;;30.70;58.40;;;;;;5064550;28;20286;-71
2023/09/06 10:29:24;;;;;;;32.73;11.70;;;30.70;58.40;;;;;;5066466;28;20223;-74
2023/09/06 10:31:52;;;;;;;39.43;15.50;;;30.70;58.40;;;;;;5062986;28;20284;-74
2023/09/06 10:34:19;;;;;;;43.33;16.23;;;30.70;58.40;;;;;;5061982;28;20298;-71
2023/09/06 10:36:51;;;;;;;32.90;14.97;;;30.70;58.40;;;;;;5063904;28;20220;-70
2023/09/06 10:39:22;;;;;;;41.13;13.20;;;30.80;58.70;;;;;;5064114;28;20210;-71
2023/09/06 10:42:28;;;;;;;37.53;13.50;;;30.80;58.60;;;;;;5058257;28;20204;-75
2023/09/06 10:45:14;;;;;;;42.25;13.57;;;30.90;58.80;;;;;;5063393;28;20203;-69
2023/09/06 10:48:11;;;;;;;47.60;15.23;;;30.90;58.20;;;;;;5145390;27;20560;-75
2023/09/06 10:50:39;;;;;;;46.27;16.43;;;30.90;58.80;;;;;;5147975;27;20185;-72
2023/09/06 10:53:07;;;;;;;50.83;15.43;;;31.00;58.70;;;;;;5147437;27;20292;-74
2023/09/06 10:55:46;;;;;;;50.83;14.65;;;31.00;58.60;;;;;;5133820;27;20194;-72
2023/09/06 10:58:13;;;;;;;48.53;13.03;;;31.10;58.80;;;;;;5127151;27;20250;-73
2023/09/06 11:00:42;;;;;;;44.88;13.93;;;31.10;59.20;;;;;;5125042;27;20903;-72
2023/09/06 11:03:31;;;;;;;35.72;11.57;;;31.20;58.60;;;;;;5126791;27;20663;-73
2023/09/06 11:05:58;;;;;;;57.47;13.32;;;31.20;58.60;;;;;;5124914;27;20197;-72
2023/09/06 11:08:29;;;;;;;33.30;9.90;;;31.20;58.50;;;;;;5126346;27;20284;-72
2023/09/06 11:11:08;;;;;;;37.33;10.57;;;31.20;58.40;;;;;;5126633;27;20197;-72
2023/09/06 11:13:36;;;;;;;33.45;9.98;;;31.30;58.50;;;;;;5126410;27;20209;-73
2023/09/06 11:16:05;;;;;;;36.30;10.63;;;31.30;58.40;;;;;;5127823;27;20220;-72
2023/09/06 11:18:43;;;;;;;41.67;9.85;;;31.30;58.30;;;;;;5146212;27;20220;-72
2023/09/06 11:21:10;;;;;;;28.23;8.20;;;31.30;58.30;;;;;;5146317;27;20296;-72
2023/09/06 11:23:48;;;;;;;30.90;10.05;;;31.40;58.30;;;;;;5146786;27;20292;-71
2023/09/06 11:26:15;;;;;;;35.83;8.88;;;31.40;58.30;;;;;;5146834;27;20710;-72
2023/09/06 11:28:43;;;;;;;23.98;8.82;;;31.40;58.20;;;;;;5146312;27;20205;-75
2023/09/06 11:31:21;;;;;;;28.02;8.57;;;31.40;58.20;;;;;;5146914;27;20201;-74
2023/09/06 11:33:55;;;;;;;31.15;8.98;;;31.40;58.20;;;;;;5146775;27;20240;-72
2023/09/06 11:36:24;;;;;;;30.30;8.43;;;31.40;58.10;;;;;;5145843;27;20197;-74
2023/09/06 11:38:53;;;;;;;36.38;9.55;;;31.40;58.10;;;;;;5146444;27;20375;-72
2023/09/06 11:41:20;;;;;;;28.83;8.48;;;31.40;58.00;;;;;;5146776;27;20509;-72
2023/09/06 11:43:51;;;;;;;45.17;10.20;;;31.40;58.00;;;;;;5145889;27;20196;-72
2023/09/06 11:46:18;;;;;;;29.83;8.35;;;31.40;58.00;;;;;;5125204;27;20242;-72
2023/09/06 11:48:47;;;;;;;26.92;8.60;;;31.40;58.60;;;;;;5125681;27;20301;-72
2023/09/06 11:51:18;;;;;;;30.73;8.32;;;31.50;58.10;;;;;;5125625;27;20250;-72
2023/09/06 11:53:54;;;;;;;32.50;8.52;;;31.50;58.10;;;;;;5124941;27;20217;-72
2023/09/06 11:56:26;;;;;;;29.37;7.93;;;31.50;58.10;;;;;;5146117;27;20204;-72
2023/09/06 11:58:54;;;;;;;27.70;7.93;;;31.50;58.00;;;;;;5135648;27;20189;-72
2023/09/06 12:01:22;;;;;;;33.58;8.80;;;31.50;58.00;;;;;;5132310;27;20202;-73
2023/09/06 12:03:50;;;;;;;22.17;7.32;;;31.50;58.00;;;;;;5132212;27;20718;-72
2023/09/06 12:06:19;;;;;;;29.00;8.07;;;31.50;58.00;;;;;;5131599;27;20600;-72
2023/09/06 12:08:46;;;;;;;32.25;8.50;;;31.50;58.00;;;;;;5131916;27;20193;-72
2023/09/06 12:11:21;;;;;;;33.80;8.65;;;31.50;57.90;;;;;;5132520;27;20194;-72
2023/09/06 12:13:48;;;;;;;28.55;8.70;;;31.50;57.90;;;;;;5132084;27;20684;-72
2023/09/06 12:16:16;;;;;;;30.75;8.05;;;31.50;57.90;;;;;;5132263;27;20308;-72
2023/09/06 12:18:43;;;;;;;28.35;8.02;;;31.50;57.90;;;;;;5131967;27;20614;-72
2023/09/06 12:21:10;;;;;;;24.95;7.20;;;31.50;57.90;;;;;;5132176;27;20316;-74
2023/09/06 12:23:39;;;;;;;25.80;7.95;;;31.50;57.90;;;;;;5131983;27;20272;-77
2023/09/06 12:26:06;;;;;;;30.30;8.37;;;31.50;58.00;;;;;;5131244;27;20201;-76
2023/09/06 12:28:33;;;;;;;27.85;7.60;;;31.50;58.00;;;;;;5131895;27;20301;-73
2023/09/06 12:31:02;;;;;;;26.73;8.00;;;31.50;58.00;;;;;;5132278;27;20193;-74
2023/09/06 12:33:30;;;;;;;34.13;8.50;;;31.50;57.90;;;;;;5131714;27;20197;-75
2023/09/06 12:36:00;;;;;;;30.98;8.23;;;31.50;58.00;;;;;;5131201;27;20206;-76
2023/09/06 12:38:29;;;;;;;23.07;7.80;;;31.50;57.90;;;;;;5130953;27;20287;-77
2023/09/06 12:40:57;;;;;;;28.35;7.95;;;31.50;58.00;;;;;;5131784;27;20213;-76
2023/09/06 12:43:26;;;;;;;25.43;8.20;;;31.50;58.00;;;;;;5132009;27;20284;-78
2023/09/06 12:45:53;;;;;;;23.17;7.07;;;31.50;58.00;;;;;;5131173;27;20954;-77
2023/09/06 12:48:20;;;;;;;36.20;8.37;;;31.50;58.00;;;;;;5130487;27;20589;-77
2023/09/06 12:50:49;;;;;;;26.88;7.15;;;31.50;58.00;;;;;;5131296;27;20242;-75